バーミンガム の空港の天気 - METARとTAF

バーミンガム国際空港 ( EGBB / BHX ) - イギリス バーミンガム
飛行場実況気象(Metar)
観測時間07/20 12:50 BST (07/20 11:50 UTC)
風向・風速南西 5m/s
視程10km以上
天気現象周辺でしゅう雨
少しの雲 雲底高度 820m
全天の4割程度の雲 雲底高度 1100m
気温20℃
湿度68%
気圧1006hPa
METAREGBB 201150Z 23010KT 200V280 9999 VCSH FEW027 SCT036CB 20/14 Q1006
過去の天気等 Google飛行場航空写真 Wunderground天気予報

過去48時間のMETAR

飛行場予報(TAF)
発表時間: 7/20 11:55 BST (7/20 10:55 UTC)
予報対象時間: 20日13時 BST ~ 21日13時 BST
風向・風速西南西 6m/s
視程10km以上
全天の4割程度の雲 雲底高度 760m
20日13時 BST ~ 20日18時 BST に一時的に
視程7000m
天気現象しゅう雨
20日13時 BST ~ 20日17時 BST に 確率 30% で一時的に
視程4000m
天気現象強いしゅう雨
TAF EGBB 201055Z 2012/2112 25012KT 9999 SCT025
TEMPO 2012/2017 7000 SHRA
PROB30 TEMPO 2012/2016 4000 +SHRA